createdAt,value
2019-03-20T00:02:31.373Z,1.20
2019-03-20T00:07:36.154Z,1.20
2019-03-20T00:12:42.215Z,1.37
2019-03-20T00:17:48.645Z,1.43
2019-03-20T00:22:56.141Z,1.13
2019-03-20T00:28:01.939Z,1.30
2019-03-20T00:33:07.046Z,1.40
2019-03-20T00:38:11.801Z,1.60
2019-03-20T00:43:21.540Z,1.30
2019-03-20T00:48:26.780Z,1.33
2019-03-20T00:53:32.707Z,1.63
2019-03-20T00:58:39.626Z,1.83
2019-03-20T01:03:45.285Z,1.47
2019-03-20T01:08:51.606Z,1.50
2019-03-20T01:13:56.657Z,1.40
2019-03-20T01:19:01.626Z,1.27
2019-03-20T01:24:06.382Z,1.40
2019-03-20T01:29:11.453Z,1.13
2019-03-20T01:34:16.591Z,1.33
2019-03-20T01:39:22.606Z,1.70
2019-03-20T01:44:27.313Z,1.50
2019-03-20T01:49:32.241Z,1.37
2019-03-20T01:54:37.257Z,1.77
2019-03-20T01:59:42.267Z,1.33
2019-03-20T02:04:48.587Z,1.00
2019-03-20T02:09:53.364Z,1.10
2019-03-20T02:14:58.458Z,1.30
2019-03-20T02:20:03.234Z,1.30
2019-03-20T02:25:08.626Z,1.43
2019-03-20T02:30:15.952Z,1.33
2019-03-20T02:35:20.726Z,1.03
2019-03-20T02:40:25.684Z,1.40
2019-03-20T02:45:30.723Z,1.40
2019-03-20T02:50:35.518Z,1.10
2019-03-20T02:55:40.259Z,0.90
2019-03-20T03:00:45.635Z,1.30
2019-03-20T03:05:50.658Z,1.17
2019-03-20T03:10:56.207Z,1.23
2019-03-20T03:16:02.570Z,1.90
2019-03-20T03:21:10.989Z,1.03
2019-03-20T03:26:15.774Z,1.10
2019-03-20T03:31:22.241Z,1.07
2019-03-20T03:36:27.276Z,1.10
2019-03-20T03:41:34.507Z,1.00
2019-03-20T03:46:40.155Z,0.97
2019-03-20T03:51:50.124Z,1.10
2019-03-20T03:56:51.369Z,0.90
2019-03-20T04:01:58.467Z,1.10
2019-03-20T04:07:04.409Z,1.20
2019-03-20T04:12:10.040Z,1.10
2019-03-20T04:17:24.757Z,1.17
2019-03-20T04:22:30.735Z,0.93
2019-03-20T04:27:36.725Z,1.27
2019-03-20T04:32:41.633Z,1.30
2019-03-20T04:37:47.381Z,1.00
2019-03-20T04:42:52.878Z,1.07
2019-03-20T04:47:57.876Z,1.00
2019-03-20T04:53:03.040Z,1.40
2019-03-20T05:04:19.536Z,1.10
2019-03-20T05:09:28.328Z,1.20
2019-03-20T05:14:33.164Z,2.37
2019-03-20T05:19:38.205Z,3.80
2019-03-20T05:24:44.445Z,1.83
2019-03-20T05:29:49.110Z,1.60
2019-03-20T05:34:56.269Z,1.23
2019-03-20T05:40:01.042Z,1.20
2019-03-20T05:45:09.165Z,1.10
2019-03-20T05:50:14.194Z,1.40
2019-03-20T05:55:20.222Z,1.47
2019-03-20T06:00:28.830Z,1.20
2019-03-20T06:05:33.532Z,1.20
2019-03-20T06:10:38.230Z,1.47
2019-03-20T06:15:45.065Z,1.30
2019-03-20T06:20:49.763Z,1.20
2019-03-20T06:25:55.288Z,1.53
2019-03-20T06:31:00.574Z,1.20
2019-03-20T06:36:05.582Z,1.57
2019-03-20T06:41:10.479Z,1.43
2019-03-20T06:46:15.326Z,1.80
2019-03-20T06:51:21.399Z,2.03
2019-03-20T06:56:27.606Z,1.70
2019-03-20T07:01:32.086Z,1.70
2019-03-20T07:07:15.397Z,1.53
2019-03-20T07:12:20.113Z,1.43
2019-03-20T07:17:28.528Z,1.30
2019-03-20T07:22:34.771Z,1.37
2019-03-20T07:27:39.493Z,1.47
2019-03-20T07:32:44.845Z,1.40
2019-03-20T07:37:55.916Z,1.60
2019-03-20T07:42:56.217Z,1.70
2019-03-20T07:48:06.061Z,1.40
2019-03-20T07:53:07.505Z,1.43
2019-03-20T07:58:15.081Z,1.67
2019-03-20T08:03:19.904Z,1.60
2019-03-20T08:08:24.622Z,1.87
2019-03-20T08:13:29.886Z,1.67
2019-03-20T08:18:35.023Z,1.90
2019-03-20T08:23:41.223Z,1.57
2019-03-20T08:28:49.302Z,1.97
2019-03-20T08:33:57.088Z,2.40
2019-03-20T08:39:01.784Z,1.40
2019-03-20T08:44:08.253Z,1.40
2019-03-20T08:49:13.249Z,1.20
2019-03-20T08:54:19.985Z,1.70
2019-03-20T08:59:24.928Z,1.80
2019-03-20T09:04:29.634Z,1.33
2019-03-20T09:09:34.469Z,1.50
2019-03-20T09:14:39.396Z,1.70
2019-03-20T09:19:44.201Z,1.87
2019-03-20T09:24:50.545Z,1.40
2019-03-20T09:29:55.266Z,1.50
2019-03-20T09:35:01.543Z,1.33
2019-03-20T09:40:09.717Z,1.17
2019-03-20T09:45:15.382Z,1.53
2019-03-20T09:50:20.174Z,1.40
2019-03-20T09:55:27.137Z,1.60
2019-03-20T10:00:31.890Z,1.53
2019-03-20T10:05:36.731Z,1.97
2019-03-20T10:10:41.414Z,1.63
2019-03-20T10:15:47.981Z,1.57
2019-03-20T10:20:52.720Z,1.63
2019-03-20T10:25:57.498Z,1.60
2019-03-20T10:31:02.200Z,1.80
2019-03-20T10:36:08.457Z,2.00
2019-03-20T10:41:13.125Z,1.70
2019-03-20T10:46:17.917Z,1.70
2019-03-20T10:51:22.629Z,1.80
2019-03-20T10:56:29.283Z,1.63
2019-03-20T11:01:42.516Z,1.70
2019-03-20T11:06:45.067Z,1.70
2019-03-20T11:11:52.097Z,1.53
2019-03-20T11:16:58.348Z,1.93
2019-03-20T11:22:04.753Z,1.50
2019-03-20T11:27:11.400Z,1.60
2019-03-20T11:32:16.077Z,1.80
2019-03-20T11:37:21.030Z,1.50
2019-03-20T11:42:27.488Z,1.60
2019-03-20T11:47:32.205Z,1.70
2019-03-20T11:52:37.252Z,1.60
2019-03-20T11:57:42.082Z,1.50
2019-03-20T12:02:47.144Z,1.43
2019-03-20T12:07:51.975Z,1.50
2019-03-20T12:12:57.798Z,1.77
2019-03-20T12:18:03.687Z,1.60
2019-03-20T12:23:11.512Z,1.40
2019-03-20T12:28:16.645Z,1.40
2019-03-20T12:33:25.013Z,1.60
2019-03-20T12:38:32.473Z,1.70
2019-03-20T12:43:38.731Z,1.60
2019-03-20T12:48:43.827Z,1.33
2019-03-20T12:53:48.551Z,1.70
2019-03-20T12:58:53.581Z,1.37
2019-03-20T13:03:58.430Z,1.30
2019-03-20T13:09:03.842Z,1.50
2019-03-20T13:14:08.905Z,1.70
2019-03-20T13:19:16.106Z,1.20
2019-03-20T13:24:21.275Z,1.47
2019-03-20T13:29:26.177Z,1.63
2019-03-20T13:34:31.092Z,1.60
2019-03-20T13:39:36.068Z,1.30
2019-03-20T13:44:41.702Z,1.70
2019-03-20T13:49:46.939Z,1.90
2019-03-20T13:54:53.940Z,1.63
2019-03-20T13:59:59.106Z,1.60
2019-03-20T14:05:05.615Z,1.30
2019-03-20T14:10:24.521Z,1.50
2019-03-20T14:15:23.947Z,1.43
2019-03-20T14:20:29.005Z,1.30
2019-03-20T14:25:34.021Z,1.10
2019-03-20T14:30:39.082Z,1.30
2019-03-20T14:35:44.238Z,1.47
2019-03-20T14:40:49.466Z,1.30
2019-03-20T14:45:54.800Z,1.40
2019-03-20T14:51:01.213Z,1.50
2019-03-20T14:56:06.420Z,1.00
2019-03-20T15:01:11.852Z,1.30
2019-03-20T15:06:16.900Z,1.47
2019-03-20T15:11:23.480Z,1.40
2019-03-20T15:16:28.446Z,1.50
2019-03-20T15:21:34.492Z,1.43
2019-03-20T15:26:41.456Z,1.20
2019-03-20T15:31:46.517Z,1.40
2019-03-20T15:36:52.614Z,1.10
2019-03-20T15:41:57.792Z,1.67
2019-03-20T15:47:02.877Z,1.70
2019-03-20T15:52:08.375Z,1.50
2019-03-20T15:57:13.683Z,1.70
2019-03-20T16:02:21.514Z,1.40
2019-03-20T16:07:26.798Z,1.50
2019-03-20T16:12:32.238Z,1.20
2019-03-20T16:17:37.182Z,1.20
2019-03-20T16:22:43.294Z,1.80
2019-03-20T16:27:49.751Z,1.17
2019-03-20T16:32:56.538Z,1.20
2019-03-20T16:38:02.901Z,1.33
2019-03-20T16:43:09.592Z,1.47
2019-03-20T16:48:15.804Z,1.13
2019-03-20T16:53:24.304Z,1.30
2019-03-20T16:58:30.597Z,1.17
2019-03-20T17:03:37.648Z,1.23
2019-03-20T17:08:43.930Z,1.43
2019-03-20T17:13:48.751Z,1.40
2019-03-20T17:18:53.744Z,1.60
2019-03-20T17:23:58.520Z,1.47
2019-03-20T17:29:08.874Z,1.50
2019-03-20T17:34:13.283Z,1.20
2019-03-20T17:39:18.464Z,1.40
2019-03-20T17:44:23.287Z,1.37
2019-03-20T17:49:27.981Z,1.20
2019-03-20T17:54:32.902Z,1.23
2019-03-20T17:59:37.953Z,1.10
2019-03-20T18:04:43.105Z,1.30
2019-03-20T18:09:48.114Z,1.10
2019-03-20T18:14:54.731Z,1.10
2019-03-20T18:20:01.443Z,1.23
2019-03-20T18:25:07.556Z,1.30
2019-03-20T18:30:20.289Z,1.40
2019-03-20T18:35:30.558Z,1.70
2019-03-20T18:40:35.561Z,1.70
2019-03-20T18:45:40.497Z,1.90
2019-03-20T18:50:48.657Z,2.80
2019-03-20T18:55:54.620Z,2.00
2019-03-20T19:01:02.262Z,2.20
2019-03-20T19:06:15.606Z,2.20
2019-03-20T19:11:21.497Z,2.10
2019-03-20T19:16:26.573Z,1.87
2019-03-20T19:21:31.325Z,2.40
2019-03-20T19:26:36.409Z,2.07
2019-03-20T19:31:41.203Z,2.23
2019-03-20T19:36:48.872Z,2.03
2019-03-20T19:41:54.234Z,1.80
2019-03-20T19:46:59.941Z,2.00
2019-03-20T19:52:06.599Z,2.90
2019-03-20T19:57:14.638Z,2.80
2019-03-20T20:02:19.652Z,2.10
2019-03-20T20:07:25.931Z,1.80
2019-03-20T20:12:31.633Z,1.87
2019-03-20T20:17:39.258Z,2.63
2019-03-20T20:22:45.196Z,2.73
2019-03-20T20:27:49.949Z,2.23
2019-03-20T20:32:54.984Z,2.20
2019-03-20T20:38:04.680Z,2.53
2019-03-20T20:43:06.775Z,2.83
2019-03-20T20:48:14.127Z,2.40
2019-03-20T20:53:19.699Z,2.37
2019-03-20T20:58:25.889Z,2.23
2019-03-20T21:03:32.015Z,2.40
2019-03-20T21:08:37.312Z,2.00
2019-03-20T21:13:42.366Z,1.90
2019-03-20T21:19:34.169Z,2.20
2019-03-20T21:24:40.642Z,2.10
2019-03-20T21:30:28.885Z,2.27
2019-03-20T21:36:21.186Z,2.00
2019-03-20T21:42:19.489Z,2.03
2019-03-20T21:47:32.905Z,2.13
2019-03-20T21:52:38.145Z,2.00
2019-03-20T21:58:13.683Z,2.53
2019-03-20T22:03:19.196Z,2.63
2019-03-20T22:08:25.438Z,2.40
2019-03-20T22:13:54.831Z,2.30
2019-03-20T22:19:45.465Z,1.80
2019-03-20T22:25:26.501Z,2.00
2019-03-20T22:30:34.035Z,1.60
2019-03-20T22:35:43.543Z,1.90
2019-03-20T22:41:26.663Z,1.70
2019-03-20T22:47:08.388Z,2.10
2019-03-20T22:52:28.013Z,1.77
2019-03-20T22:57:43.878Z,1.57
2019-03-20T23:03:09.661Z,1.70
2019-03-20T23:08:20.937Z,1.80
2019-03-20T23:13:26.425Z,1.63
2019-03-20T23:18:31.682Z,1.90
2019-03-20T23:23:38.979Z,1.70
2019-03-20T23:28:44.474Z,1.80
2019-03-20T23:33:51.342Z,2.10
2019-03-20T23:38:56.581Z,2.13
2019-03-20T23:44:02.118Z,2.00
2019-03-20T23:49:17.024Z,1.80
2019-03-20T23:54:32.233Z,1.80
2019-03-20T23:59:37.591Z,1.50
